SVMG/PMV METAR and TAF weather

Enter ICAO airport designator
Station Type Date Time Source
SVMG METAR 2023/02/06 19:00 UTC NOAA

SVMG 061900Z 08014KT 9999 FEW030 BKN050 ///// Q1013


Station Type Date Time Source
SVMG Decoded METAR 2023/02/06 19:00 UTC NOAA

Margarita / Del Carib, Venezuela (SVMG) 10-55N 063-59W
Feb 06, 2023 - 02:00 PM EST / 2023.02.06 1900 UTC
Wind: from the E (080 degrees) at 16 MPH (14 KT):0
Visibility: greater than 7 mile(s):0
Sky conditions: mostly cloudy
Pressure (altimeter): 29.91 in. Hg (1013 hPa)
ob: SVMG 061900Z 08014KT 9999 FEW030 BKN050 ///// Q1013
cycle: 19

Station Type Date Time Source
SVMG TAF 2023/02/06 18:03 UTC NOAA

TAF SVMG 061600Z 0618/0718 08012KT 9999 SCT013 TX32/0618Z TN25/0708Z
BECMG 0619/0623 09015KT 9999 FEW010

Example: see airport list